createdAt,value
2022-08-29T00:00:17.649Z,99274.84
2022-08-29T00:02:47.789Z,99281.25
2022-08-29T00:05:18.364Z,99282.28
2022-08-29T00:07:46.861Z,99280.28
2022-08-29T00:10:15.972Z,99283.69
2022-08-29T00:12:45.184Z,99284.38
2022-08-29T00:15:15.353Z,99279.28
2022-08-29T00:17:44.267Z,99278.84
2022-08-29T00:20:17.235Z,99288.03
2022-08-29T00:22:45.692Z,99291.34
2022-08-29T00:25:15.200Z,99288.47
2022-08-29T00:27:44.575Z,99289.00
2022-08-29T00:30:19.835Z,99286.59
2022-08-29T00:32:47.989Z,99285.56
2022-08-29T00:35:22.999Z,99284.59
2022-08-29T00:37:52.270Z,99286.66
2022-08-29T00:40:24.287Z,99278.69
2022-08-29T00:42:52.685Z,99275.69
2022-08-29T00:45:20.887Z,99282.00
2022-08-29T00:47:53.856Z,99288.53
2022-08-29T00:50:28.706Z,99284.31
2022-08-29T00:52:58.447Z,99296.34
2022-08-29T00:55:30.231Z,99307.94
2022-08-29T00:58:01.222Z,99304.59
2022-08-29T01:00:29.643Z,99304.16
2022-08-29T01:02:58.198Z,99299.06
2022-08-29T01:05:28.152Z,99289.22
2022-08-29T01:07:56.490Z,99290.66
2022-08-29T01:10:42.813Z,99293.16
2022-08-29T01:13:12.927Z,99292.28
2022-08-29T01:15:44.103Z,99304.56
2022-08-29T01:18:16.729Z,99303.06
2022-08-29T01:20:58.448Z,99291.59
2022-08-29T01:23:34.333Z,99294.63
2022-08-29T01:26:06.827Z,99298.75
2022-08-29T01:28:39.626Z,99298.34
2022-08-29T01:31:10.660Z,99299.28
2022-08-29T01:33:43.396Z,99302.94
2022-08-29T01:36:15.628Z,99301.75
2022-08-29T01:38:44.271Z,99301.75
2022-08-29T01:41:14.737Z,99297.75
2022-08-29T01:43:48.832Z,99299.41
2022-08-29T01:46:19.481Z,99294.13
2022-08-29T01:48:48.544Z,99302.84
2022-08-29T01:51:18.008Z,99297.00
2022-08-29T01:53:46.318Z,99287.59
2022-08-29T01:56:19.062Z,99287.78
2022-08-29T01:58:48.952Z,99280.75
2022-08-29T02:01:20.456Z,99284.59
2022-08-29T02:03:50.399Z,99289.81
2022-08-29T02:06:18.839Z,99294.75
2022-08-29T02:08:47.071Z,99290.88
2022-08-29T02:11:17.969Z,99294.00
2022-08-29T02:13:48.564Z,99291.56
2022-08-29T02:16:18.333Z,99300.94
2022-08-29T02:18:47.136Z,99292.13
2022-08-29T02:21:18.663Z,99299.16
2022-08-29T02:23:50.076Z,99292.75
2022-08-29T02:26:21.977Z,99303.44
2022-08-29T02:28:51.777Z,99291.94
2022-08-29T02:31:21.624Z,99296.09
2022-08-29T02:33:49.823Z,99298.69
2022-08-29T02:36:17.996Z,99295.59
2022-08-29T02:38:48.404Z,99305.72
2022-08-29T02:41:16.813Z,99297.88
2022-08-29T02:43:46.266Z,99302.63
2022-08-29T02:46:17.352Z,99308.47
2022-08-29T02:48:47.655Z,99311.09
2022-08-29T02:51:31.605Z,99309.97
2022-08-29T02:54:00.791Z,99312.63
2022-08-29T02:56:29.291Z,99312.41
2022-08-29T02:58:59.414Z,99317.25
2022-08-29T03:01:28.663Z,99323.41
2022-08-29T03:03:56.776Z,99322.97
2022-08-29T03:06:25.445Z,99332.75
2022-08-29T03:08:54.258Z,99333.06
2022-08-29T03:11:24.161Z,99336.19
2022-08-29T03:13:52.616Z,99339.03
2022-08-29T03:16:27.888Z,99339.78
2022-08-29T03:18:56.571Z,99347.03
2022-08-29T03:21:27.307Z,99348.44
2022-08-29T03:23:57.023Z,99350.06
2022-08-29T03:26:25.932Z,99345.50
2022-08-29T03:28:54.297Z,99344.66
2022-08-29T03:31:22.876Z,99344.81
2022-08-29T03:33:52.523Z,99341.19
2022-08-29T03:36:20.913Z,99335.94
2022-08-29T03:38:49.489Z,99342.25
2022-08-29T03:41:22.391Z,99334.81
2022-08-29T03:43:50.593Z,99346.13
2022-08-29T03:46:18.962Z,99341.72
2022-08-29T03:48:47.127Z,99344.03
2022-08-29T03:51:16.774Z,99340.66
2022-08-29T03:53:45.340Z,99337.91
2022-08-29T03:56:18.345Z,99346.03
2022-08-29T03:58:52.554Z,99344.28
2022-08-29T04:01:22.829Z,99349.81
2022-08-29T04:03:51.629Z,99347.16
2022-08-29T04:06:22.506Z,99353.09
2022-08-29T04:08:51.736Z,99351.78
2022-08-29T04:11:22.587Z,99348.00
2022-08-29T04:13:51.446Z,99364.88
2022-08-29T04:16:23.108Z,99377.75
2022-08-29T04:18:51.506Z,99377.06
2022-08-29T04:21:21.123Z,99372.56
2022-08-29T04:23:53.442Z,99381.69
2022-08-29T04:26:37.743Z,99393.78
2022-08-29T04:29:06.729Z,99391.22
2022-08-29T04:31:36.704Z,99400.97
2022-08-29T04:34:06.206Z,99398.09
2022-08-29T04:36:37.142Z,99397.69
2022-08-29T04:39:06.614Z,99393.63
2022-08-29T04:41:35.422Z,99395.50
2022-08-29T04:44:03.756Z,99394.81
2022-08-29T04:46:32.906Z,99396.19
2022-08-29T04:49:04.304Z,99392.41
2022-08-29T04:51:34.481Z,99406.28
2022-08-29T04:54:05.314Z,99403.88
2022-08-29T04:56:34.847Z,99403.47
2022-08-29T04:59:03.054Z,99405.88
2022-08-29T05:01:31.869Z,99406.56
2022-08-29T05:04:00.103Z,99398.09
2022-08-29T05:06:28.725Z,99408.81
2022-08-29T05:08:59.337Z,99410.00
2022-08-29T05:11:30.884Z,99420.44
2022-08-29T05:14:00.680Z,99422.91
2022-08-29T05:16:30.492Z,99424.66
2022-08-29T05:19:00.061Z,99410.19
2022-08-29T05:21:34.149Z,99407.59
2022-08-29T05:24:06.083Z,99423.31
2022-08-29T05:26:39.090Z,99413.69
2022-08-29T05:29:09.653Z,99405.69
2022-08-29T05:31:38.273Z,99415.19
2022-08-29T05:34:29.928Z,99418.09
2022-08-29T05:36:55.188Z,99419.53
2022-08-29T05:39:23.530Z,99433.53
2022-08-29T05:41:56.479Z,99422.44
2022-08-29T05:44:24.913Z,99420.06
2022-08-29T05:46:53.040Z,99422.38
2022-08-29T05:49:21.524Z,99420.59
2022-08-29T05:51:53.347Z,99433.34
2022-08-29T05:54:21.903Z,99430.03
2022-08-29T05:56:51.293Z,99432.81
2022-08-29T05:59:21.302Z,99435.66
2022-08-29T06:01:49.470Z,99429.56
2022-08-29T06:04:17.573Z,99436.34
2022-08-29T06:06:45.940Z,99431.56
2022-08-29T06:09:15.086Z,99439.66
2022-08-29T06:11:47.156Z,99439.47
2022-08-29T06:14:15.917Z,99440.31
2022-08-29T06:16:45.606Z,99431.97
2022-08-29T06:19:13.805Z,99441.09
2022-08-29T06:21:42.076Z,99432.41
2022-08-29T06:24:10.493Z,99432.84
2022-08-29T06:26:38.725Z,99436.91
2022-08-29T06:29:09.790Z,99428.00
2022-08-29T06:31:38.753Z,99433.56
2022-08-29T06:34:10.178Z,99433.66
2022-08-29T06:36:38.804Z,99425.53
2022-08-29T06:39:09.954Z,99437.72
2022-08-29T06:41:40.766Z,99431.25
2022-08-29T06:44:10.547Z,99431.69
2022-08-29T06:46:41.770Z,99428.16
2022-08-29T06:49:14.667Z,99425.69
2022-08-29T06:51:46.862Z,99429.56
2022-08-29T06:54:15.465Z,99437.13
2022-08-29T06:56:44.228Z,99437.63
2022-08-29T06:59:13.192Z,99441.00
2022-08-29T07:01:42.935Z,99445.34
2022-08-29T07:04:14.598Z,99437.59
2022-08-29T07:06:44.173Z,99432.66
2022-08-29T07:09:13.166Z,99441.47
2022-08-29T07:11:43.342Z,99438.69
2022-08-29T07:14:13.535Z,99436.50
2022-08-29T07:16:45.116Z,99441.63
2022-08-29T07:19:14.923Z,99438.19
2022-08-29T07:21:44.074Z,99439.88
2022-08-29T07:24:12.400Z,99435.22
2022-08-29T07:26:44.292Z,99436.78
2022-08-29T07:29:15.997Z,99436.75
2022-08-29T07:31:44.293Z,99432.41
2022-08-29T07:34:14.673Z,99432.34
2022-08-29T07:36:43.063Z,99433.75
2022-08-29T07:39:13.360Z,99437.09
2022-08-29T07:41:43.673Z,99436.41
2022-08-29T07:44:15.910Z,99439.66
2022-08-29T07:46:47.541Z,99440.34
2022-08-29T07:49:17.329Z,99439.78
2022-08-29T07:51:45.540Z,99434.34
2022-08-29T07:54:16.904Z,99438.94
2022-08-29T07:56:46.043Z,99434.88
2022-08-29T07:59:14.541Z,99434.06
2022-08-29T08:01:42.715Z,99427.63
2022-08-29T08:04:11.661Z,99426.31
2022-08-29T08:06:43.611Z,99426.81
2022-08-29T08:09:14.149Z,99416.47
2022-08-29T08:11:43.788Z,99416.56
2022-08-29T08:14:12.695Z,99413.84
2022-08-29T08:16:44.319Z,99418.00
2022-08-29T08:19:14.300Z,99411.56
2022-08-29T08:21:49.593Z,99412.72
2022-08-29T08:24:19.752Z,99422.16
2022-08-29T08:26:49.670Z,99418.81
2022-08-29T08:29:18.519Z,99415.81
2022-08-29T08:31:50.056Z,99415.28
2022-08-29T08:34:19.024Z,99413.53
2022-08-29T08:36:48.697Z,99409.06
2022-08-29T08:39:17.163Z,99408.09
2022-08-29T08:41:58.544Z,99404.44
2022-08-29T08:45:05.722Z,99402.13
2022-08-29T08:47:40.174Z,99405.56
2022-08-29T08:50:17.650Z,99410.75
2022-08-29T08:52:55.163Z,99409.16
2022-08-29T08:55:30.747Z,99406.50
2022-08-29T08:58:08.004Z,99403.97
2022-08-29T09:00:43.655Z,99402.53
2022-08-29T09:03:26.566Z,99385.25
2022-08-29T09:06:10.841Z,99389.31
2022-08-29T09:08:52.363Z,99384.50
2022-08-29T09:11:28.225Z,99392.25
2022-08-29T09:14:10.917Z,99381.13
2022-08-29T09:16:45.091Z,99382.66
2022-08-29T09:19:17.269Z,99372.88
2022-08-29T09:21:49.815Z,99379.94
2022-08-29T09:24:27.111Z,99371.41
2022-08-29T09:26:56.410Z,99366.38
2022-08-29T09:29:28.622Z,99367.38
2022-08-29T09:32:10.368Z,99361.09
2022-08-29T09:35:06.911Z,99360.31
2022-08-29T09:37:36.288Z,99365.88
2022-08-29T09:40:10.828Z,99365.53
2022-08-29T09:42:42.859Z,99367.78
2022-08-29T09:45:30.711Z,99367.13
2022-08-29T09:48:12.291Z,99362.41
2022-08-29T09:50:40.462Z,99361.97
2022-08-29T09:53:11.673Z,99362.63
2022-08-29T09:55:54.944Z,99358.19
2022-08-29T09:58:34.262Z,99355.97
2022-08-29T10:01:09.862Z,99344.84
2022-08-29T10:03:44.462Z,99346.66
2022-08-29T10:06:16.569Z,99348.25
2022-08-29T10:08:57.758Z,99338.81
2022-08-29T10:11:33.099Z,99339.63
2022-08-29T10:14:05.572Z,99336.38
2022-08-29T10:16:50.492Z,99330.84
2022-08-29T10:19:22.550Z,99327.25
2022-08-29T10:22:00.716Z,99328.34
2022-08-29T10:24:55.222Z,99327.97
2022-08-29T10:27:33.826Z,99326.28
2022-08-29T10:30:10.225Z,99320.72
2022-08-29T10:33:01.255Z,99310.00
2022-08-29T10:35:35.147Z,99315.66
2022-08-29T10:38:13.669Z,99317.72
2022-08-29T10:40:47.548Z,99314.41
2022-08-29T10:43:43.383Z,99308.53
2022-08-29T10:46:24.842Z,99304.66
2022-08-29T10:49:03.504Z,99308.53
2022-08-29T10:51:38.139Z,99301.41
2022-08-29T10:54:18.392Z,99303.66
2022-08-29T10:56:49.641Z,99303.44
2022-08-29T10:59:30.302Z,99305.66
2022-08-29T11:02:03.353Z,99295.44
2022-08-29T11:04:38.350Z,99289.59
2022-08-29T11:07:12.973Z,99287.78
2022-08-29T11:09:45.217Z,99282.16
2022-08-29T11:12:18.979Z,99276.75
2022-08-29T11:14:54.428Z,99271.91
2022-08-29T11:17:26.135Z,99271.09
2022-08-29T11:20:09.685Z,99266.50
2022-08-29T11:22:43.180Z,99262.84
2022-08-29T11:25:14.535Z,99259.84
2022-08-29T11:27:54.747Z,99254.22
2022-08-29T11:30:30.687Z,99247.75
2022-08-29T11:33:08.511Z,99252.06
2022-08-29T11:35:47.185Z,99249.84
2022-08-29T11:38:59.289Z,99238.41
2022-08-29T11:41:30.992Z,99239.69
2022-08-29T11:44:11.501Z,99239.25
2022-08-29T11:46:49.011Z,99229.28
2022-08-29T11:49:37.344Z,99234.16
2022-08-29T11:52:27.349Z,99226.94
2022-08-29T11:55:22.690Z,99230.91
2022-08-29T11:58:01.730Z,99220.88
2022-08-29T12:00:48.596Z,99217.66
2022-08-29T12:03:53.819Z,99220.47
2022-08-29T12:06:51.706Z,99220.06
2022-08-29T12:09:47.748Z,99218.50
2022-08-29T12:12:38.307Z,99210.06
2022-08-29T12:15:48.959Z,99210.91
2022-08-29T12:18:36.931Z,99207.50
2022-08-29T12:21:46.126Z,99204.13
2022-08-29T12:24:55.168Z,99198.44
2022-08-29T12:27:59.718Z,99196.34
2022-08-29T12:30:28.515Z,99202.59
2022-08-29T12:33:09.132Z,99209.81
2022-08-29T12:36:08.259Z,99214.91
2022-08-29T12:38:44.790Z,99202.09
2022-08-29T12:41:34.025Z,99205.16
2022-08-29T12:44:05.961Z,99211.03
2022-08-29T12:46:36.809Z,99210.56
2022-08-29T12:49:16.059Z,99215.91
2022-08-29T12:51:44.811Z,99206.63
2022-08-29T12:54:13.954Z,99203.72
2022-08-29T12:56:49.996Z,99200.22
2022-08-29T12:59:20.364Z,99201.81
2022-08-29T13:01:52.272Z,99201.25
2022-08-29T13:04:32.001Z,99202.59
2022-08-29T13:07:03.196Z,99193.94
2022-08-29T13:09:34.161Z,99194.16
2022-08-29T13:12:13.529Z,99200.75
2022-08-29T13:15:04.071Z,99194.03
2022-08-29T13:17:35.525Z,99193.19
2022-08-29T13:20:42.831Z,99190.28
2022-08-29T13:23:17.158Z,99187.53
2022-08-29T13:25:49.760Z,99186.63
2022-08-29T13:28:25.324Z,99189.59
2022-08-29T13:31:30.499Z,99182.88
2022-08-29T13:34:12.948Z,99187.94
2022-08-29T13:36:46.226Z,99173.25
2022-08-29T13:39:29.183Z,99162.16
2022-08-29T13:42:21.444Z,99165.38
2022-08-29T13:45:13.110Z,99169.50
2022-08-29T13:47:49.697Z,99171.19
2022-08-29T13:50:17.865Z,99166.66
2022-08-29T13:52:46.027Z,99169.81
2022-08-29T13:55:14.298Z,99165.63
2022-08-29T13:57:42.876Z,99162.88
2022-08-29T14:00:13.940Z,99159.97
2022-08-29T14:02:45.123Z,99161.69
2022-08-29T14:05:15.006Z,99163.59
2022-08-29T14:07:45.670Z,99158.53
2022-08-29T14:10:17.608Z,99153.91
2022-08-29T14:12:47.572Z,99158.16
2022-08-29T14:15:19.032Z,99158.00
2022-08-29T14:17:49.064Z,99152.41
2022-08-29T14:20:20.010Z,99154.81
2022-08-29T14:22:48.889Z,99148.47
2022-08-29T14:25:20.436Z,99147.50
2022-08-29T14:27:49.633Z,99143.88
2022-08-29T14:30:22.059Z,99143.19
2022-08-29T14:32:50.476Z,99147.44
2022-08-29T14:35:26.766Z,99150.31
2022-08-29T14:38:01.474Z,99148.31
2022-08-29T14:40:30.731Z,99140.53
2022-08-29T14:42:59.414Z,99152.25
2022-08-29T14:45:30.261Z,99147.25
2022-08-29T14:47:59.042Z,99150.66
2022-08-29T14:50:29.758Z,99147.63
2022-08-29T14:52:57.892Z,99145.16
2022-08-29T14:55:26.415Z,99143.31
2022-08-29T14:57:54.789Z,99146.09
2022-08-29T15:00:25.865Z,99147.13
2022-08-29T15:02:56.985Z,99146.59
2022-08-29T15:05:26.083Z,99147.66
2022-08-29T15:07:54.619Z,99152.03
2022-08-29T15:10:25.177Z,99152.66
2022-08-29T15:12:54.876Z,99174.47
2022-08-29T15:15:29.535Z,99161.75
2022-08-29T15:18:00.740Z,99160.28
2022-08-29T15:20:38.735Z,99163.84
2022-08-29T15:23:08.203Z,99156.69
2022-08-29T15:25:36.516Z,99164.59
2022-08-29T15:28:06.904Z,99166.66
2022-08-29T15:30:35.563Z,99164.84
2022-08-29T15:33:05.415Z,99166.41
2022-08-29T15:35:34.347Z,99173.03
2022-08-29T15:38:02.675Z,99183.72
2022-08-29T15:40:31.362Z,99193.91
2022-08-29T15:42:59.703Z,99194.63
2022-08-29T15:45:27.906Z,99193.31
2022-08-29T15:47:59.009Z,99196.03
2022-08-29T15:50:47.109Z,99190.94
2022-08-29T15:53:15.676Z,99196.97
2022-08-29T15:55:44.588Z,99188.19
2022-08-29T15:58:12.886Z,99192.44
2022-08-29T16:00:41.214Z,99194.34
2022-08-29T16:03:09.755Z,99188.47
2022-08-29T16:05:41.106Z,99182.06
2022-08-29T16:08:10.773Z,99192.13
2022-08-29T16:10:45.387Z,99189.81
2022-08-29T16:13:14.512Z,99184.31
2022-08-29T16:15:42.953Z,99192.22
2022-08-29T16:18:11.529Z,99195.94
2022-08-29T16:20:41.692Z,99194.50
2022-08-29T16:23:10.118Z,99192.94
2022-08-29T16:25:39.264Z,99197.38
2022-08-29T16:28:07.732Z,99197.66
2022-08-29T16:30:44.232Z,99202.06
2022-08-29T16:33:14.159Z,99206.47
2022-08-29T16:35:43.876Z,99206.81
2022-08-29T16:38:12.530Z,99201.28
2022-08-29T16:40:41.024Z,99204.56
2022-08-29T16:43:09.752Z,99211.91
2022-08-29T16:45:38.275Z,99212.88
2022-08-29T16:48:17.667Z,99228.00
2022-08-29T16:50:48.026Z,99222.34
2022-08-29T16:53:16.314Z,99223.69
2022-08-29T16:55:44.477Z,99228.97
2022-08-29T16:58:30.155Z,99223.03
2022-08-29T17:00:58.890Z,99218.44
2022-08-29T17:03:27.293Z,99225.16
2022-08-29T17:05:56.933Z,99231.13
2022-08-29T17:08:23.993Z,99228.50
2022-08-29T17:10:50.977Z,99234.28
2022-08-29T17:13:18.150Z,99228.00
2022-08-29T17:15:45.129Z,99237.34
2022-08-29T17:18:13.345Z,99241.56
2022-08-29T17:20:44.014Z,99236.66
2022-08-29T17:23:16.402Z,99233.13
2022-08-29T17:25:44.846Z,99245.22
2022-08-29T17:28:18.109Z,99240.69
2022-08-29T17:30:48.082Z,99242.91
2022-08-29T17:33:17.005Z,99244.63
2022-08-29T17:35:45.667Z,99251.47
2022-08-29T17:38:16.118Z,99255.97
2022-08-29T17:40:44.765Z,99257.50
2022-08-29T17:43:15.031Z,99257.88
2022-08-29T17:45:43.334Z,99259.94
2022-08-29T17:48:11.840Z,99266.34
2022-08-29T17:50:41.533Z,99271.81
2022-08-29T17:53:09.673Z,99268.13
2022-08-29T17:55:43.008Z,99266.00
2022-08-29T17:58:11.629Z,99269.25
2022-08-29T18:00:40.021Z,99275.31
2022-08-29T18:03:08.262Z,99263.09
2022-08-29T18:05:36.634Z,99272.09
2022-08-29T18:08:05.318Z,99270.56
2022-08-29T18:10:33.813Z,99280.16
2022-08-29T18:13:04.012Z,99279.91
2022-08-29T18:15:35.550Z,99284.84
2022-08-29T18:18:04.151Z,99290.75
2022-08-29T18:20:33.802Z,99288.63
2022-08-29T18:23:02.006Z,99285.72
2022-08-29T18:25:30.362Z,99283.81
2022-08-29T18:28:00.224Z,99286.06
2022-08-29T18:30:29.980Z,99289.00
2022-08-29T18:32:58.535Z,99285.63
2022-08-29T18:35:27.498Z,99286.72
2022-08-29T18:37:55.879Z,99281.19
2022-08-29T18:40:25.550Z,99287.72
2022-08-29T18:42:54.817Z,99289.09
2022-08-29T18:45:23.148Z,99287.75
2022-08-29T18:47:52.849Z,99294.38
2022-08-29T18:50:36.707Z,99299.03
2022-08-29T18:53:11.966Z,99296.56
2022-08-29T18:55:45.000Z,99287.16
2022-08-29T18:58:17.995Z,99290.25
2022-08-29T19:00:46.326Z,99297.19
2022-08-29T19:03:16.093Z,99284.97
2022-08-29T19:05:49.572Z,99293.81
2022-08-29T19:08:18.241Z,99293.81
2022-08-29T19:10:48.567Z,99291.66
2022-08-29T19:13:18.759Z,99303.38
2022-08-29T19:15:48.699Z,99290.25
2022-08-29T19:18:18.951Z,99294.72
2022-08-29T19:21:06.591Z,99299.06
2022-08-29T19:23:37.575Z,99299.69
2022-08-29T19:26:08.226Z,99303.38
2022-08-29T19:28:36.718Z,99297.50
2022-08-29T19:31:06.773Z,99311.56
2022-08-29T19:33:38.377Z,99313.59
2022-08-29T19:36:09.792Z,99311.41
2022-08-29T19:38:38.008Z,99317.25
2022-08-29T19:41:06.360Z,99315.88
2022-08-29T19:43:36.010Z,99322.06
2022-08-29T19:46:10.485Z,99322.31
2022-08-29T19:48:44.265Z,99330.81
2022-08-29T19:51:18.522Z,99326.31
2022-08-29T19:53:47.668Z,99333.25
2022-08-29T19:56:15.895Z,99322.75
2022-08-29T19:58:44.246Z,99326.00
2022-08-29T20:01:12.552Z,99327.38
2022-08-29T20:03:42.466Z,99335.22
2022-08-29T20:06:12.358Z,99331.34
2022-08-29T20:08:42.759Z,99331.06
2022-08-29T20:11:12.907Z,99340.28
2022-08-29T20:13:41.137Z,99340.56
2022-08-29T20:16:12.133Z,99338.06
2022-08-29T20:18:41.217Z,99335.59
2022-08-29T20:21:09.891Z,99339.38
2022-08-29T20:26:28.226Z,99338.88
2022-08-29T20:28:58.438Z,99337.38
2022-08-29T20:31:26.705Z,99330.81
2022-08-29T20:33:55.473Z,99327.59
2022-08-29T20:36:42.289Z,99334.69
2022-08-29T20:39:15.297Z,99342.56
2022-08-29T20:41:49.359Z,99343.34
2022-08-29T20:44:20.409Z,99345.47
2022-08-29T20:46:49.448Z,99352.56
2022-08-29T20:49:22.773Z,99359.25
2022-08-29T20:51:52.148Z,99360.78
2022-08-29T20:54:25.078Z,99350.09
2022-08-29T20:56:55.104Z,99351.34
2022-08-29T20:59:26.454Z,99344.38
2022-08-29T21:01:55.555Z,99344.13
2022-08-29T21:04:41.225Z,99343.09
2022-08-29T21:07:12.178Z,99345.63
2022-08-29T21:09:44.413Z,99351.75
2022-08-29T21:12:15.168Z,99355.44
2022-08-29T21:14:43.495Z,99355.06
2022-08-29T21:17:13.559Z,99362.09
2022-08-29T21:19:42.223Z,99367.06
2022-08-29T21:22:12.890Z,99364.09
2022-08-29T21:24:43.216Z,99365.63
2022-08-29T21:27:11.577Z,99360.22
2022-08-29T21:29:40.537Z,99363.19
2022-08-29T21:32:08.739Z,99356.28
2022-08-29T21:34:36.878Z,99365.44
2022-08-29T21:37:05.659Z,99358.84
2022-08-29T21:39:33.966Z,99362.66
2022-08-29T21:42:03.415Z,99365.75
2022-08-29T21:44:32.431Z,99358.34
2022-08-29T21:47:01.121Z,99364.34
2022-08-29T21:49:30.533Z,99363.56
2022-08-29T21:51:58.657Z,99365.72
2022-08-29T21:54:27.215Z,99367.56
2022-08-29T21:56:55.334Z,99373.13
2022-08-29T21:59:25.505Z,99367.69
2022-08-29T22:01:54.944Z,99383.22
2022-08-29T22:04:28.595Z,99376.47
2022-08-29T22:06:58.318Z,99382.91
2022-08-29T22:09:27.897Z,99376.28
2022-08-29T22:11:56.264Z,99374.38
2022-08-29T22:14:47.017Z,99375.69
2022-08-29T22:17:15.744Z,99373.38
2022-08-29T22:19:43.871Z,99378.34
2022-08-29T22:22:12.536Z,99376.63
2022-08-29T22:24:40.777Z,99380.25
2022-08-29T22:27:08.979Z,99380.25
2022-08-29T22:29:38.694Z,99380.69
2022-08-29T22:32:07.080Z,99374.09
2022-08-29T22:34:35.598Z,99379.00
2022-08-29T22:37:03.961Z,99383.28
2022-08-29T22:39:32.413Z,99388.06
2022-08-29T22:42:00.483Z,99393.19
2022-08-29T22:47:20.018Z,99397.16
2022-08-29T22:49:48.137Z,99385.16
2022-08-29T22:52:16.218Z,99382.09
2022-08-29T22:54:44.376Z,99377.31
2022-08-29T22:57:19.223Z,99389.16
2022-08-29T22:59:49.822Z,99390.06
2022-08-29T23:02:21.119Z,99398.25
2022-08-29T23:04:50.618Z,99392.84
2022-08-29T23:07:19.360Z,99392.28
2022-08-29T23:09:47.850Z,99394.72
2022-08-29T23:12:16.494Z,99392.72
2022-08-29T23:14:47.426Z,99383.63
2022-08-29T23:17:17.281Z,99391.59
2022-08-29T23:19:46.898Z,99376.22
2022-08-29T23:22:18.333Z,99382.09
2022-08-29T23:24:53.769Z,99381.28
2022-08-29T23:27:27.647Z,99390.84
2022-08-29T23:29:56.081Z,99388.50
2022-08-29T23:32:24.292Z,99389.09
2022-08-29T23:34:53.803Z,99388.06
2022-08-29T23:37:21.974Z,99396.16
2022-08-29T23:39:50.921Z,99394.16
2022-08-29T23:42:19.085Z,99389.81
2022-08-29T23:44:48.523Z,99388.72
2022-08-29T23:47:17.180Z,99391.59
2022-08-29T23:49:45.694Z,99387.63
2022-08-29T23:52:15.411Z,99394.72
2022-08-29T23:54:43.538Z,99388.06
2022-08-29T23:57:12.093Z,99385.09
2022-08-29T23:59:57.656Z,99381.66
